Hutchinson, MN

9:38 AM CST on November 12, 2019 (GMT -0600)
Hutchinson Municipal-Butler

Weather History for KHCD - October, 2019

Change the Weather History Date:

Sunday, October 20, 2019

  Actual Average Record
Temperature  
Mean Temperature 48 °F -  
Max Temperature 64 °F 57 °F 79 °F (1978)
Min Temperature 32 °F 34 °F 20 °F (1989)
Degree Days  
Heating Degree Days 17    
Moisture  
Dew Point 38 °F    
Average Humidity 69    
Maximum Humidity 100    
Minimum Humidity 38    
Precipitation  
Precipitation 0.00 in - - ()
Sea Level Pressure  
Sea Level Pressure 29.79 in    
Wind  
Wind Speed 3 mph (ESE)    
Max Wind Speed 16 mph    
Max Gust Speed 24 mph    
Visibility 10 miles    
Events      
Averages and records for this station are not official NWS values.
T = Trace of Precipitation, MM = Missing Value Source: NWS Daily Summary

Daily Weather History Graph

Daily Weather History Graph

Search for Another Location

Airport or City:

Astronomy

Oct. 20, 2019 Rise Set
Actual Time 7:39 AM CDT 6:24 PM CDT
Civil Twilight 7:09 AM CDT 6:54 PM CDT
Nautical Twilight 6:35 AM CDT 7:28 PM CDT
Astronomical Twilight 6:01 AM CDT 8:02 PM CDT
Moon 11:24 PM CDT (10/20) 2:18 PM CDT (10/20)
Length of Visible Light 11h 44m
Length of Day
10h 45m
Waning Gibbous, 59% of the Moon is Illuminated
Oct 20
Waning Gibbous
Oct 21
Last Quarter
Oct 27
New
Nov 4
First Quarter
Nov 12
Full

Hourly Weather History & Observations

Time (CDT) Temp. Windchill Dew Point Humidity Pressure Visibility Wind Dir Wind Speed Gust Speed Precip Events Conditions
12:15 AM 36.5 °F - 34.3 °F 92% 29.76 in 10.0 mi Calm Calm - N/A   Clear
12:37 AM 35.6 °F - 34.3 °F 95% 29.76 in 10.0 mi Calm Calm - N/A   Clear
12:55 AM 34.7 °F - 34.2 °F 98% 29.76 in 10.0 mi Calm Calm - N/A   Clear
1:15 AM 35.2 °F - 34.0 °F 95% 29.75 in 10.0 mi Calm Calm - N/A   Clear
1:35 AM 34.2 °F - 33.3 °F 97% 29.76 in 10.0 mi Calm Calm - N/A   Clear
1:36 AM 34.0 °F - 33.3 °F 97% 29.76 in 10.0 mi Calm Calm - N/A   Clear
1:58 AM 33.3 °F - 32.9 °F 99% 29.75 in 10.0 mi Calm Calm - N/A   Clear
2:17 AM 33.4 °F - 32.9 °F 98% 29.76 in 10.0 mi Calm Calm - N/A   Clear
2:36 AM 34.0 °F - 33.3 °F 97% 29.76 in 10.0 mi Calm Calm - N/A   Clear
2:55 AM 32.9 °F - 32.4 °F 98% 29.77 in 10.0 mi Calm Calm - N/A   Clear
3:15 AM 32.4 °F - 32.2 °F 99% 29.77 in 10.0 mi Calm Calm - N/A   Clear
3:37 AM 33.6 °F - 32.9 °F 97% 29.77 in 10.0 mi Calm Calm - N/A   Clear
3:56 AM 33.3 °F - 32.5 °F 97% 29.78 in 10.0 mi Calm Calm - N/A   Clear
4:15 AM 32.9 °F - 32.5 °F 99% 29.78 in 10.0 mi Calm Calm - N/A   Clear
4:16 AM 33.1 °F - 32.7 °F 99% 29.78 in 10.0 mi Calm Calm - N/A   Clear
4:35 AM 32.0 °F - 31.8 °F 99% 29.79 in 10.0 mi Calm Calm - N/A   Clear
4:36 AM 32.0 °F - 31.8 °F 99% 29.79 in 10.0 mi Calm Calm - N/A   Clear
5:16 AM 33.4 °F - 32.9 °F 98% 29.79 in 10.0 mi Calm Calm - N/A   Clear
5:35 AM 32.5 °F - 32.0 °F 98% 29.80 in 10.0 mi Calm Calm - N/A   Clear
5:36 AM 32.4 °F - 32.0 °F 99% 29.80 in 10.0 mi Calm Calm - N/A   Clear
5:55 AM 32.5 °F - 32.0 °F 98% 29.80 in 10.0 mi Calm Calm - N/A   Clear
5:56 AM 32.4 °F - 31.8 °F 98% 29.80 in 10.0 mi Calm Calm - N/A   Clear
6:15 AM 32.0 °F - 31.8 °F 99% 29.81 in 10.0 mi Calm Calm - N/A   Clear
6:19 AM 32.0 °F - 32.0 °F 100% 29.81 in 10.0 mi Calm Calm - N/A   Clear
6:38 AM 33.1 °F - 32.0 °F 96% 29.81 in 10.0 mi Calm Calm - N/A   Clear
6:55 AM 32.2 °F - 31.6 °F 98% 29.82 in 10.0 mi Calm Calm - N/A   Clear
7:15 AM 32.2 °F - 32.0 °F 99% 29.82 in 10.0 mi Calm Calm - N/A   Clear
7:16 AM 32.0 °F - 32.0 °F 100% 29.82 in 10.0 mi Calm Calm - N/A   Clear
7:35 AM 32.0 °F - 32.0 °F 100% 29.82 in 10.0 mi Calm Calm - N/A   Scattered Clouds
7:36 AM 32.0 °F - 31.8 °F 99% 29.82 in 10.0 mi Calm Calm - N/A   Scattered Clouds
7:59 AM 32.5 °F - 32.2 °F 99% 29.82 in 10.0 mi Calm Calm - N/A   Scattered Clouds
8:16 AM 34.0 °F - 33.1 °F 96% 29.83 in 10.0 mi Calm Calm - N/A   Clear
8:36 AM 34.9 °F - 34.2 °F 97% 29.84 in 10.0 mi Calm Calm - N/A   Clear
8:55 AM 38.5 °F 36.1 °F 35.6 °F 89% 29.84 in 10.0 mi ESE 3.5 mph - N/A   Scattered Clouds
8:56 AM 38.5 °F 36.1 °F 35.6 °F 89% 29.84 in 10.0 mi East 3.5 mph - N/A   Scattered Clouds
9:15 AM 43.2 °F 41.5 °F 38.1 °F 82% 29.84 in 10.0 mi East 3.5 mph - N/A   Scattered Clouds
9:19 AM 44.1 °F - 38.5 °F 81% 29.84 in 10.0 mi Calm Calm - N/A   Scattered Clouds
9:38 AM 46.4 °F 45.2 °F 40.3 °F 79% 29.83 in 10.0 mi ESE 3.5 mph - N/A   Clear
10:15 AM 52.2 °F - 42.1 °F 69% 29.83 in 10.0 mi ESE 5.8 mph - N/A   Clear
10:16 AM 52.3 °F - 42.1 °F 68% 29.83 in 10.0 mi ESE 5.8 mph - N/A   Clear
10:35 AM 55.2 °F - 42.3 °F 62% 29.84 in 10.0 mi SE 4.6 mph - N/A   Clear
10:39 AM 56.1 °F - 42.1 °F 59% 29.84 in 10.0 mi SE 3.5 mph - N/A   Clear
10:57 AM 58.8 °F - 39.4 °F 49% 29.83 in 10.0 mi SE 6.9 mph - N/A   Clear
11:16 AM 60.1 °F - 37.2 °F 43% 29.84 in 10.0 mi SE 9.2 mph - N/A   Clear
11:36 AM 61.7 °F - 37.2 °F 40% 29.84 in 10.0 mi ESE 10.4 mph - N/A   Clear
11:55 AM 62.6 °F - 37.0 °F 39% 29.84 in 10.0 mi SSE 9.2 mph - N/A   Clear
11:56 AM 62.6 °F - 36.9 °F 38% 29.84 in 10.0 mi SSE 8.1 mph - N/A   Clear
12:15 PM 62.6 °F - 36.9 °F 38% 29.84 in 10.0 mi SE 10.4 mph - N/A   Clear
12:19 PM 62.2 °F - 37.0 °F 39% 29.84 in 10.0 mi SE 8.1 mph - N/A   Clear
12:38 PM 61.7 °F - 37.9 °F 41% 29.84 in 10.0 mi SE 9.2 mph - N/A   Scattered Clouds
12:56 PM 63.1 °F - 38.1 °F 40% 29.84 in 10.0 mi SE 8.1 mph - N/A   Mostly Cloudy
1:15 PM 63.5 °F - 38.5 °F 40% 29.84 in 10.0 mi SE 9.2 mph - N/A   Overcast
1:16 PM 63.5 °F - 38.7 °F 40% 29.84 in 10.0 mi SE 6.9 mph - N/A   Overcast
1:35 PM 64.6 °F - 38.7 °F 38% 29.82 in 10.0 mi SSE 6.9 mph - N/A   Mostly Cloudy
1:39 PM 64.6 °F - 39.2 °F 39% 29.82 in 10.0 mi SE 6.9 mph - N/A   Mostly Cloudy
1:58 PM 64.2 °F - 38.8 °F 39% 29.82 in 10.0 mi SE 5.8 mph - N/A   Mostly Cloudy
2:15 PM 63.1 °F - 40.6 °F 44% 29.82 in 10.0 mi ESE 9.2 mph - N/A   Scattered Clouds
2:35 PM 63.1 °F - 38.8 °F 41% 29.81 in 10.0 mi SE 6.9 mph - N/A   Scattered Clouds
2:36 PM 63.1 °F - 38.7 °F 40% 29.81 in 10.0 mi SE 6.9 mph - N/A   Scattered Clouds
2:55 PM 62.6 °F - 38.3 °F 41% 29.81 in 10.0 mi SE 9.2 mph - N/A   Clear
2:56 PM 62.6 °F - 38.1 °F 40% 29.81 in 10.0 mi SE 6.9 mph - N/A   Clear
3:18 PM 62.2 °F - 41.2 °F 46% 29.81 in 10.0 mi ESE 6.9 mph - N/A   Scattered Clouds
3:36 PM 61.7 °F - 42.1 °F 49% 29.80 in 10.0 mi ESE 6.9 mph - N/A   Scattered Clouds
3:56 PM 61.7 °F - 41.7 °F 48% 29.80 in 10.0 mi ESE 6.9 mph - N/A   Clear
4:15 PM 61.3 °F - 42.1 °F 49% 29.80 in 10.0 mi East 6.9 mph - N/A   Clear
4:35 PM 60.6 °F - 42.1 °F 50% 29.80 in 10.0 mi ESE 6.9 mph - N/A   Scattered Clouds
4:36 PM 60.4 °F - 42.1 °F 51% 29.80 in 10.0 mi ESE 6.9 mph - N/A   Scattered Clouds
4:59 PM 60.1 °F - 42.6 °F 53% 29.79 in 10.0 mi ESE 5.8 mph - N/A   Scattered Clouds
5:16 PM 61.2 °F - 41.2 °F 48% 29.79 in 10.0 mi East 6.9 mph - N/A   Clear
5:35 PM 60.6 °F - 41.4 °F 49% 29.78 in 10.0 mi East 5.8 mph - N/A   Clear
5:36 PM 60.6 °F - 41.4 °F 49% 29.78 in 10.0 mi East 6.9 mph - N/A   Clear
5:55 PM 59.0 °F - 40.8 °F 51% 29.78 in 10.0 mi East 5.8 mph - N/A   Clear
5:56 PM 59.0 °F - 40.8 °F 51% 29.78 in 10.0 mi East 5.8 mph - N/A   Clear
6:15 PM 57.7 °F - 40.8 °F 53% 29.78 in 10.0 mi East 6.9 mph - N/A   Clear
6:19 PM 57.6 °F - 40.8 °F 54% 29.78 in 10.0 mi East 6.9 mph - N/A   Clear
6:37 PM 57.4 °F - 40.6 °F 54% 29.77 in 10.0 mi East 9.2 mph - N/A   Clear
6:55 PM 57.2 °F - 40.5 °F 54% 29.77 in 10.0 mi East 8.1 mph - N/A   Clear
7:15 PM 56.3 °F - 41.0 °F 57% 29.78 in 10.0 mi East 5.8 mph - N/A   Clear
7:16 PM 56.3 °F - 41.0 °F 57% 29.78 in 10.0 mi East 5.8 mph - N/A   Clear
7:35 PM 56.3 °F - 40.8 °F 56% 29.78 in 10.0 mi East 6.9 mph - N/A   Clear
7:36 PM 56.3 °F - 40.8 °F 56% 29.78 in 10.0 mi East 8.1 mph - N/A   Scattered Clouds
7:59 PM 56.3 °F - 41.0 °F 57% 29.78 in 10.0 mi East 8.1 mph - N/A   Mostly Cloudy
8:16 PM 55.8 °F - 41.0 °F 58% 29.78 in 10.0 mi East 8.1 mph - N/A   Mostly Cloudy
8:36 PM 56.3 °F - 41.2 °F 57% 29.78 in 10.0 mi East 10.4 mph - N/A   Overcast
8:55 PM 56.7 °F - 41.5 °F 57% 29.78 in 10.0 mi East 11.5 mph - N/A   Overcast
9:15 PM 56.7 °F - 41.9 °F 58% 29.76 in 10.0 mi East 11.5 mph - N/A   Overcast
9:19 PM 56.7 °F - 41.9 °F 58% 29.76 in 10.0 mi East 11.5 mph - N/A   Overcast
9:37 PM 56.5 °F - 42.1 °F 59% 29.76 in 10.0 mi East 11.5 mph - N/A   Overcast
9:55 PM 56.3 °F - 42.6 °F 60% 29.76 in 10.0 mi East 16.1 mph 24.2 mph N/A   Overcast
10:15 PM 56.3 °F - 42.8 °F 61% 29.74 in 10.0 mi East 12.7 mph 18.4 mph N/A   Overcast
10:16 PM 56.3 °F - 42.8 °F 61% 29.74 in 10.0 mi East 11.5 mph - N/A   Overcast
10:35 PM 56.3 °F - 43.3 °F 62% 29.73 in 10.0 mi East 16.1 mph 20.7 mph N/A   Overcast
10:36 PM 56.3 °F - 43.5 °F 62% 29.73 in 10.0 mi East 16.1 mph 20.7 mph N/A   Overcast
10:55 PM 56.3 °F - 43.3 °F 62% 29.73 in 10.0 mi East 15.0 mph 21.9 mph N/A   Overcast
10:59 PM 56.3 °F - 43.5 °F 62% 29.73 in 10.0 mi ESE 15.0 mph 21.9 mph N/A   Overcast
11:16 PM 56.3 °F - 44.2 °F 64% 29.72 in 10.0 mi East 16.1 mph 21.9 mph N/A   Overcast
11:36 PM 56.3 °F - 43.3 °F 62% 29.71 in 10.0 mi East 12.7 mph - N/A   Overcast
11:55 PM 56.3 °F - 44.4 °F 64% 29.71 in 10.0 mi ESE 12.7 mph - N/A   Overcast
11:56 PM 56.3 °F - 44.4 °F 64% 29.71 in 10.0 mi ESE 12.7 mph - N/A   Overcast